Time;durP1;ratioP1;P1;durP2;ratioP2;P2;SDS_P1;SDS_P2;PMS_P1;PMS_P2;Temp;Humidity;BMP_temperature;BMP_pressure;BME280_temperature;BME280_humidity;BME280_pressure;Samples;Min_cycle;Max_cycle;Signal;HPM_P1;HPM_P2
2022/12/01 00:01:41;;;;;;;134.15;48.70;;;6.50;99.90;;;;;;5135832;27;20324;-73
2022/12/01 00:04:06;;;;;;;155.32;50.17;;;7.50;99.90;;;;;;5153834;27;20053;-73
2022/12/01 00:06:32;;;;;;;146.45;48.97;;;7.10;99.90;;;;;;5153680;27;20078;-72
2022/12/01 00:11:43;;;;;;;157.82;49.78;;;7.30;99.90;;;;;;5146058;27;20055;-73
2022/12/01 00:14:09;;;;;;;;;;;6.40;99.90;;;;;;5144181;27;20051;-73
2022/12/01 00:16:35;;;;;;;141.38;46.55;;;6.30;99.90;;;;;;5133119;27;19925;-74
2022/12/01 00:19:00;;;;;;;146.23;49.47;;;6.90;99.90;;;;;;5153770;27;20047;-73
2022/12/01 00:21:27;;;;;;;161.55;50.72;;;7.90;99.90;;;;;;5153824;27;20047;-73
2022/12/01 00:23:55;;;;;;;160.68;50.92;;;6.50;99.90;;;;;;5153800;27;20103;-73
2022/12/01 00:26:21;;;;;;;162.02;50.40;;;6.60;99.90;;;;;;5153872;27;20047;-74
2022/12/01 00:28:49;;;;;;;145.98;47.38;;;6.80;99.90;;;;;;5153727;27;20147;-73
2022/12/01 00:31:15;;;;;;;157.73;48.70;;;6.30;99.90;;;;;;5152903;27;20055;-73
2022/12/01 00:33:40;;;;;;;155.93;49.72;;;7.80;99.90;;;;;;5153213;27;20162;-73
2022/12/01 00:36:06;;;;;;;161.52;50.85;;;7.20;99.90;;;;;;5153732;27;20183;-73
2022/12/01 00:38:33;;;;;;;167.13;50.40;;;6.30;99.90;;;;;;5153458;27;20042;-72
2022/12/01 00:40:58;;;;;;;155.40;49.80;;;6.60;99.90;;;;;;5135443;27;20402;-74
2022/12/01 00:43:24;;;;;;;146.30;46.88;;;6.80;99.90;;;;;;5153495;27;20038;-73
2022/12/01 00:45:50;;;;;;;152.07;48.03;;;7.10;99.90;;;;;;5134752;27;20051;-73
2022/12/01 00:48:16;;;;;;;145.48;47.25;;;6.10;99.90;;;;;;5153631;27;20574;-73
2022/12/01 00:50:42;;;;;;;164.57;49.13;;;6.60;99.90;;;;;;5134588;27;20061;-73
2022/12/01 00:53:08;;;;;;;;;;;6.50;99.90;;;;;;5153757;27;20050;-74
2022/12/01 00:55:34;;;;;;;148.50;48.83;;;6.20;99.90;;;;;;5135211;27;19930;-73
2022/12/01 00:57:59;;;;;;;144.75;47.85;;;6.50;99.90;;;;;;5153341;27;20130;-74
2022/12/01 01:00:25;;;;;;;156.80;49.95;;;7.20;99.90;;;;;;5153103;27;20439;-74
2022/12/01 01:02:51;;;;;;;155.65;49.70;;;7.10;99.90;;;;;;5153351;27;20142;-73
2022/12/01 01:05:17;;;;;;;149.05;50.05;;;5.90;99.90;;;;;;5152979;27;20125;-73
2022/12/01 01:07:42;;;;;;;153.95;49.25;;;6.60;99.90;;;;;;5153427;27;20050;-73
2022/12/01 01:10:09;;;;;;;148.30;49.05;;;7.20;99.90;;;;;;5153071;27;20522;-73
2022/12/01 01:12:34;;;;;;;;;;;6.30;99.90;;;;;;5153883;27;20144;-73
2022/12/01 01:15:00;;;;;;;148.65;48.45;;;7.20;99.90;;;;;;5152879;27;20029;-73
2022/12/01 01:17:25;;;;;;;142.00;48.58;;;5.90;99.90;;;;;;5153309;27;20051;-75
2022/12/01 01:19:52;;;;;;;149.82;47.90;;;6.30;99.90;;;;;;5153082;27;20542;-73
2022/12/01 01:22:18;;;;;;;151.90;48.95;;;6.40;99.90;;;;;;5153269;27;20049;-73
2022/12/01 01:24:44;;;;;;;150.68;49.65;;;6.90;99.90;;;;;;5153014;27;20042;-74
2022/12/01 01:27:09;;;;;;;145.52;48.67;;;7.40;99.90;;;;;;5134590;27;20057;-74
2022/12/01 01:29:35;;;;;;;144.43;48.58;;;5.90;99.90;;;;;;5152934;27;20047;-73
2022/12/01 01:32:01;;;;;;;146.98;49.25;;;6.10;99.90;;;;;;5153265;27;20055;-73
2022/12/01 01:34:27;;;;;;;162.25;49.28;;;6.20;99.90;;;;;;5117036;27;20054;-74
2022/12/01 01:36:53;;;;;;;153.75;49.28;;;6.30;99.90;;;;;;5153344;27;20039;-73
2022/12/01 01:39:18;;;;;;;143.05;49.78;;;6.10;99.90;;;;;;5153289;27;20070;-73
2022/12/01 01:41:44;;;;;;;143.88;47.90;;;6.40;99.90;;;;;;5152839;27;20475;-73
2022/12/01 01:44:48;;;;;;;152.23;50.75;;;6.20;99.90;;;;;;5155624;27;20049;-72
2022/12/01 01:47:16;;;;;;;142.52;48.75;;;6.60;99.90;;;;;;5156974;27;20470;-72
2022/12/01 01:49:42;;;;;;;142.35;48.95;;;6.50;99.90;;;;;;5157219;27;20093;-73
2022/12/01 01:52:08;;;;;;;133.35;49.30;;;6.60;99.90;;;;;;5156938;27;20122;-73
2022/12/01 01:54:41;;;;;;;153.02;52.65;;;6.80;99.90;;;;;;5156686;27;20432;-73
2022/12/01 01:57:08;;;;;;;143.65;48.47;;;6.30;99.90;;;;;;5156539;27;20125;-72
2022/12/01 01:59:41;;;;;;;135.65;48.97;;;7.30;99.90;;;;;;5156684;27;20066;-73
2022/12/01 02:02:09;;;;;;;132.90;48.83;;;6.10;99.90;;;;;;5156705;27;20047;-72
2022/12/01 02:04:40;;;;;;;138.23;47.30;;;6.90;99.90;;;;;;5156611;27;20049;-73
2022/12/01 02:07:07;;;;;;;155.48;49.72;;;6.40;99.90;;;;;;5138102;27;20072;-73
2022/12/01 02:09:34;;;;;;;140.52;48.38;;;7.00;99.90;;;;;;5137691;27;20046;-73
2022/12/01 02:12:24;;;;;;;135.70;47.15;;;6.10;99.90;;;;;;5156171;27;20084;-73
2022/12/01 02:14:57;;;;;;;137.10;49.10;;;6.60;99.90;;;;;;5156512;27;20039;-73
2022/12/01 02:17:44;;;;;;;152.88;51.30;;;6.40;99.90;;;;;;5156451;27;20062;-73
2022/12/01 02:20:28;;;;;;;149.68;51.05;;;5.90;99.90;;;;;;5156417;27;20497;-73
2022/12/01 02:23:09;;;;;;;146.65;47.15;;;6.60;99.90;;;;;;5156313;27;20138;-72
2022/12/01 02:26:16;;;;;;;148.35;50.63;;;6.30;99.90;;;;;;5155950;27;20133;-73
2022/12/01 02:29:08;;;;;;;151.37;49.87;;;6.30;99.90;;;;;;5156241;27;20046;-73
2022/12/01 02:31:37;;;;;;;157.57;50.10;;;7.20;99.90;;;;;;5136467;27;20498;-72
2022/12/01 02:34:53;;;;;;;149.20;48.83;;;6.70;99.90;;;;;;5156031;27;20054;-73
2022/12/01 02:37:26;;;;;;;155.48;50.25;;;6.20;99.90;;;;;;5051419;28;20045;-74
2022/12/01 02:40:07;;;;;;;152.93;52.13;;;6.00;99.90;;;;;;5132048;27;20097;-73
2022/12/01 02:43:03;;;;;;;162.38;49.53;;;6.40;99.90;;;;;;5155893;27;20042;-74
2022/12/01 02:45:58;;;;;;;158.23;50.97;;;6.10;99.90;;;;;;5155919;27;20050;-72
2022/12/01 02:48:29;;;;;;;147.75;50.03;;;6.30;99.90;;;;;;5115544;27;20500;-73
2022/12/01 02:50:59;;;;;;;144.73;49.58;;;6.70;99.90;;;;;;5155645;27;20046;-72
2022/12/01 02:53:25;;;;;;;157.30;52.20;;;6.90;99.90;;;;;;5155957;27;20046;-72
2022/12/01 02:55:54;;;;;;;155.27;48.85;;;6.40;99.90;;;;;;5154442;27;20077;-73
2022/12/01 02:58:20;;;;;;;150.13;51.10;;;6.20;99.90;;;;;;5155542;27;20087;-73
2022/12/01 03:01:17;;;;;;;154.23;48.65;;;6.90;99.90;;;;;;5137170;27;20039;-73
2022/12/01 03:03:58;;;;;;;150.27;49.58;;;6.40;99.90;;;;;;5155502;27;20058;-73
2022/12/01 03:06:35;;;;;;;142.40;47.97;;;6.30;99.90;;;;;;5155420;27;20047;-73
2022/12/01 03:09:48;;;;;;;136.30;47.97;;;6.20;99.90;;;;;;5154992;27;20047;-73
2022/12/01 03:12:47;;;;;;;143.98;49.35;;;6.40;99.90;;;;;;5050784;28;20059;-73
2022/12/01 03:15:21;;;;;;;147.77;48.60;;;6.40;99.90;;;;;;5141097;27;20107;-73
2022/12/01 03:18:12;;;;;;;145.50;49.17;;;6.60;99.90;;;;;;5133388;27;20494;-74
2022/12/01 03:21:00;;;;;;;154.55;51.40;;;6.40;99.90;;;;;;5116222;27;20383;-74
2022/12/01 03:23:31;;;;;;;154.95;51.70;;;8.00;99.90;;;;;;5134115;27;20376;-73
2022/12/01 03:26:00;;;;;;;152.60;46.92;;;6.40;99.90;;;;;;5134311;27;20047;-74
2022/12/01 03:28:32;;;;;;;155.75;50.55;;;6.30;99.90;;;;;;5134342;27;20046;-73
2022/12/01 03:31:02;;;;;;;150.30;49.38;;;6.60;99.90;;;;;;5134433;27;20063;-73
2022/12/01 03:33:34;;;;;;;144.20;49.88;;;6.50;99.90;;;;;;5134401;27;20051;-73
2022/12/01 03:36:06;;;;;;;149.52;48.00;;;6.20;99.90;;;;;;5134255;27;20047;-74
2022/12/01 03:38:35;;;;;;;138.93;49.03;;;6.40;99.90;;;;;;5133854;27;20066;-73
2022/12/01 03:41:06;;;;;;;140.85;48.42;;;6.40;99.90;;;;;;5134091;27;20039;-73
2022/12/01 03:43:35;;;;;;;145.55;49.03;;;6.30;99.90;;;;;;5133998;27;20082;-73
2022/12/01 03:46:23;;;;;;;142.23;47.53;;;6.30;99.90;;;;;;5133956;27;20043;-73
2022/12/01 03:48:51;;;;;;;142.30;48.35;;;7.70;99.90;;;;;;5133892;27;20453;-73
2022/12/01 03:51:34;;;;;;;142.02;47.47;;;6.50;99.90;;;;;;5133755;27;20043;-73
2022/12/01 03:54:11;;;;;;;127.68;46.55;;;6.40;99.90;;;;;;5133469;27;20051;-74
2022/12/01 03:56:45;;;;;;;127.90;45.95;;;6.50;99.90;;;;;;5133836;27;20047;-73
2022/12/01 03:59:12;;;;;;;121.63;43.50;;;6.50;99.90;;;;;;5115447;27;20051;-73
2022/12/01 04:01:38;;;;;;;128.75;45.20;;;6.60;99.90;;;;;;5133575;27;20128;-73
2022/12/01 04:04:10;;;;;;;129.10;44.75;;;7.70;99.90;;;;;;5115174;27;20097;-74
2022/12/01 04:06:36;;;;;;;127.60;44.70;;;6.50;99.90;;;;;;5132658;27;20099;-73
2022/12/01 04:09:03;;;;;;;119.32;44.35;;;8.00;99.90;;;;;;5133350;27;20110;-73
2022/12/01 04:14:13;;;;;;;113.88;42.53;;;7.50;99.90;;;;;;5133489;27;20051;-73
2022/12/01 04:16:39;;;;;;;114.00;41.30;;;6.40;99.90;;;;;;5133413;27;20372;-74
2022/12/01 04:19:05;;;;;;;108.38;39.78;;;6.30;99.90;;;;;;5133269;27;20114;-74
2022/12/01 04:21:30;;;;;;;94.60;38.30;;;6.40;99.90;;;;;;5133014;27;20054;-73
2022/12/01 04:23:59;;;;;;;91.63;37.95;;;7.20;99.90;;;;;;5133624;27;20054;-74
2022/12/01 04:26:26;;;;;;;98.18;37.08;;;6.90;99.90;;;;;;5115095;27;20050;-73
2022/12/01 04:28:51;;;;;;;90.95;38.33;;;6.70;99.90;;;;;;5132801;27;20069;-73
2022/12/01 04:31:17;;;;;;;79.95;34.83;;;6.80;99.90;;;;;;5097478;27;20487;-73
2022/12/01 04:33:43;;;;;;;84.80;35.60;;;6.50;99.90;;;;;;5133096;27;20082;-73
2022/12/01 04:36:09;;;;;;;86.93;34.60;;;7.40;99.90;;;;;;5132525;27;20169;-73
2022/12/01 04:38:37;;;;;;;80.05;34.33;;;6.30;99.90;;;;;;5133025;27;20066;-73
2022/12/01 04:41:10;;;;;;;84.63;35.28;;;6.60;99.90;;;;;;5133010;27;20086;-74
2022/12/01 04:43:36;;;;;;;83.25;33.20;;;6.40;99.90;;;;;;5132937;27;20130;-74
2022/12/01 04:46:03;;;;;;;64.30;29.85;;;6.30;99.90;;;;;;5114744;27;20055;-73
2022/12/01 04:48:28;;;;;;;57.35;26.08;;;6.60;99.90;;;;;;5132928;27;20043;-73
2022/12/01 04:50:54;;;;;;;47.97;22.23;;;6.50;99.90;;;;;;5114283;28;20104;-74
2022/12/01 04:53:20;;;;;;;42.05;21.13;;;6.90;99.90;;;;;;5132934;28;20448;-73
2022/12/01 04:55:46;;;;;;;41.45;19.17;;;6.50;99.90;;;;;;5114669;28;20536;-73
2022/12/01 04:58:11;;;;;;;37.42;17.60;;;6.70;99.90;;;;;;5132920;28;20102;-73
2022/12/01 05:00:37;;;;;;;34.95;17.40;;;6.40;99.90;;;;;;5132780;28;20035;-73
2022/12/01 05:03:03;;;;;;;36.03;17.92;;;6.30;99.90;;;;;;5132762;28;20137;-73
2022/12/01 05:05:29;;;;;;;30.98;16.92;;;6.60;99.90;;;;;;5132549;27;20050;-74
2022/12/01 05:07:55;;;;;;;32.95;16.77;;;6.60;99.90;;;;;;5132780;28;20543;-73
2022/12/01 05:10:21;;;;;;;36.13;17.13;;;6.40;99.90;;;;;;5132666;27;20122;-73
2022/12/01 05:12:47;;;;;;;33.83;17.02;;;7.70;99.90;;;;;;5114549;28;20047;-73
2022/12/01 05:15:13;;;;;;;25.58;15.65;;;6.50;99.90;;;;;;5114619;28;20047;-72
2022/12/01 05:17:38;;;;;;;30.27;17.33;;;6.40;99.90;;;;;;5114635;27;20497;-73
2022/12/01 05:22:51;;;;;;;31.23;16.83;;;6.50;99.90;;;;;;5136880;27;20061;-73
2022/12/01 05:25:17;;;;;;;39.28;18.88;;;6.70;99.90;;;;;;5118855;27;20051;-73
2022/12/01 05:27:43;;;;;;;;;;;6.60;99.90;;;;;;5137241;27;20176;-72
2022/12/01 05:30:09;;;;;;;34.60;17.05;;;6.50;99.90;;;;;;5136297;27;20391;-73
2022/12/01 05:32:35;;;;;;;32.97;16.75;;;6.40;99.90;;;;;;5118261;27;20142;-74
2022/12/01 05:35:01;;;;;;;34.55;16.48;;;6.40;99.90;;;;;;5136065;27;20171;-73
2022/12/01 05:37:32;;;;;;;29.70;15.75;;;6.30;99.90;;;;;;5118349;27;20043;-73
2022/12/01 05:39:57;;;;;;;28.50;15.88;;;6.50;99.90;;;;;;5136462;27;20047;-73
2022/12/01 05:42:23;;;;;;;30.55;15.48;;;6.70;99.90;;;;;;5136429;27;20039;-72
2022/12/01 05:44:49;;;;;;;31.58;16.42;;;6.50;99.90;;;;;;5136259;27;20352;-72
2022/12/01 05:47:15;;;;;;;36.00;18.13;;;6.10;99.90;;;;;;5136290;27;20398;-72
2022/12/01 05:49:40;;;;;;;33.88;16.75;;;6.30;99.90;;;;;;5135769;27;20380;-72
2022/12/01 05:52:06;;;;;;;32.20;16.45;;;5.60;99.90;;;;;;5136098;27;20611;-74
2022/12/01 05:54:32;;;;;;;31.08;16.52;;;5.60;99.90;;;;;;5117909;27;20118;-72
2022/12/01 05:56:57;;;;;;;26.30;14.88;;;5.50;99.90;;;;;;5136373;27;20047;-72
2022/12/01 05:59:23;;;;;;;30.05;16.45;;;5.60;99.90;;;;;;5117617;27;20050;-72
2022/12/01 06:01:48;;;;;;;30.90;15.93;;;5.50;99.90;;;;;;5117836;27;20126;-72
2022/12/01 06:04:14;;;;;;;31.38;15.98;;;5.30;99.90;;;;;;5135665;27;20054;-72
2022/12/01 06:06:40;;;;;;;30.17;15.43;;;5.60;99.90;;;;;;5135933;27;20058;-73
2022/12/01 06:09:07;;;;;;;31.73;16.60;;;5.00;99.90;;;;;;5135879;27;20126;-72
2022/12/01 06:11:33;;;;;;;32.08;15.85;;;4.90;99.90;;;;;;5117636;27;20370;-73
2022/12/01 06:13:58;;;;;;;33.45;16.30;;;5.10;99.90;;;;;;5135738;27;20043;-71
2022/12/01 06:16:24;;;;;;;30.92;15.75;;;4.90;99.90;;;;;;5114402;27;20070;-72
2022/12/01 06:18:50;;;;;;;32.10;16.13;;;4.90;99.90;;;;;;5116680;27;20089;-71
2022/12/01 06:21:15;;;;;;;31.95;16.48;;;4.70;99.90;;;;;;5135539;27;20086;-72
2022/12/01 06:23:41;;;;;;;28.48;14.85;;;4.70;99.90;;;;;;5117027;27;20043;-72
2022/12/01 06:26:07;;;;;;;27.40;15.38;;;4.50;99.90;;;;;;5117312;27;20043;-72
2022/12/01 06:28:32;;;;;;;29.00;14.50;;;4.30;99.90;;;;;;5117072;27;20134;-72
2022/12/01 06:30:58;;;;;;;36.08;15.23;;;4.40;99.90;;;;;;5134129;27;20098;-73
2022/12/01 06:33:24;;;;;;;31.92;14.70;;;4.50;99.90;;;;;;5134952;27;20067;-72
2022/12/01 06:35:57;;;;;;;27.70;14.43;;;4.40;99.90;;;;;;5117137;27;20096;-72
2022/12/01 06:38:23;;;;;;;32.30;15.18;;;4.30;99.90;;;;;;5117190;27;20138;-71
2022/12/01 06:40:49;;;;;;;30.25;14.75;;;4.40;99.90;;;;;;5135297;27;20131;-73
2022/12/01 06:43:14;;;;;;;27.15;13.50;;;4.50;99.90;;;;;;5117049;27;20050;-72
2022/12/01 06:45:40;;;;;;;26.00;13.63;;;4.80;99.90;;;;;;5135170;27;20043;-72
2022/12/01 06:48:06;;;;;;;25.92;13.45;;;4.60;99.90;;;;;;5134884;27;20047;-74
2022/12/01 06:50:31;;;;;;;22.77;12.07;;;4.90;99.90;;;;;;5134957;27;20043;-72
2022/12/01 06:52:57;;;;;;;23.15;12.95;;;4.80;99.90;;;;;;5116628;27;20043;-72
2022/12/01 06:55:24;;;;;;;22.83;12.05;;;5.00;99.90;;;;;;5134935;27;20039;-72
2022/12/01 06:57:50;;;;;;;23.95;12.48;;;5.00;99.90;;;;;;5116724;27;20069;-71
2022/12/01 07:00:16;;;;;;;22.85;12.00;;;5.00;99.90;;;;;;5134870;27;20047;-72
2022/12/01 07:02:41;;;;;;;28.08;12.20;;;4.80;99.90;;;;;;5134616;27;20043;-72
2022/12/01 07:05:07;;;;;;;26.02;13.00;;;4.80;99.90;;;;;;5134628;27;20336;-71
2022/12/01 07:07:38;;;;;;;29.83;12.63;;;4.90;99.90;;;;;;5116438;27;20126;-71
2022/12/01 07:10:04;;;;;;;23.73;12.35;;;4.90;99.90;;;;;;5113886;27;20111;-77
2022/12/01 07:12:30;;;;;;;22.60;10.95;;;5.00;99.90;;;;;;5131840;27;20035;-71
2022/12/01 07:14:56;;;;;;;23.45;11.80;;;4.80;99.90;;;;;;5142356;27;20050;-74
2022/12/01 07:17:22;;;;;;;;;;;4.90;99.90;;;;;;5131426;27;20066;-72
2022/12/01 07:19:48;;;;;;;23.90;11.00;;;4.80;99.90;;;;;;5133599;27;20285;-71
2022/12/01 07:22:14;;;;;;;23.85;12.07;;;4.60;99.90;;;;;;5152495;27;20046;-71
2022/12/01 07:24:40;;;;;;;22.55;11.48;;;4.60;99.90;;;;;;5154731;27;20173;-72
2022/12/01 07:27:06;;;;;;;23.52;11.57;;;4.70;99.90;;;;;;5135230;27;20063;-72
2022/12/01 07:29:32;;;;;;;21.58;12.25;;;4.50;99.90;;;;;;5154078;27;20039;-73
2022/12/01 07:31:57;;;;;;;21.00;10.93;;;4.60;99.90;;;;;;5127982;27;20055;-71
2022/12/01 07:34:23;;;;;;;20.70;11.32;;;4.70;99.90;;;;;;5112199;28;20555;-72
2022/12/01 07:36:49;;;;;;;24.35;12.07;;;4.60;99.90;;;;;;5111439;28;20044;-71
2022/12/01 07:39:14;;;;;;;21.98;11.07;;;4.10;99.90;;;;;;5112823;28;20043;-72
2022/12/01 07:41:40;;;;;;;23.38;12.05;;;4.30;99.90;;;;;;5082245;28;20047;-73
2022/12/01 07:44:06;;;;;;;23.23;12.52;;;4.10;99.90;;;;;;5092789;28;20098;-71
2022/12/01 07:46:32;;;;;;;27.60;17.20;;;4.20;99.90;;;;;;5092644;28;20044;-72
2022/12/01 07:48:58;;;;;;;18.92;12.15;;;4.10;99.90;;;;;;5092446;28;20480;-73
2022/12/01 07:51:25;;;;;;;24.88;13.80;;;3.90;99.90;;;;;;5092540;28;20040;-72
2022/12/01 07:53:52;;;;;;;26.15;15.18;;;4.10;99.90;;;;;;5091177;28;20040;-80
2022/12/01 07:56:19;;;;;;;21.30;12.77;;;4.10;99.90;;;;;;5092131;28;20097;-72
2022/12/01 07:58:44;;;;;;;26.38;13.88;;;4.30;99.90;;;;;;5092158;28;20056;-71
2022/12/01 08:01:12;;;;;;;26.67;13.90;;;;;;;;;;5092358;28;20373;-72
2022/12/01 08:03:38;;;;;;;23.30;12.77;;;4.00;99.90;;;;;;5091888;28;20051;-72
2022/12/01 08:06:04;;;;;;;;;;;4.10;99.90;;;;;;5092706;28;20055;-74
2022/12/01 08:08:31;;;;;;;24.30;12.68;;;4.40;99.90;;;;;;5091181;28;20272;-72
2022/12/01 08:11:02;;;;;;;29.63;13.68;;;4.30;99.90;;;;;;5091679;28;20147;-79
2022/12/01 08:13:29;;;;;;;26.45;13.65;;;;;;;;;;5091793;28;20047;-72
2022/12/01 08:15:56;;;;;;;;;;;;;;;;;;5092623;28;20505;-72
2022/12/01 08:18:22;;;;;;;21.85;12.18;;;4.90;99.90;;;;;;5091711;28;20591;-72
2022/12/01 08:20:48;;;;;;;27.92;12.80;;;4.90;99.90;;;;;;5092010;28;20043;-72
2022/12/01 08:23:14;;;;;;;24.75;13.02;;;4.70;99.90;;;;;;5092036;28;20047;-72
2022/12/01 08:25:40;;;;;;;27.83;14.35;;;5.00;99.90;;;;;;5090526;28;20094;-72
2022/12/01 08:28:06;;;;;;;26.20;14.60;;;5.00;99.90;;;;;;5091645;28;20503;-73
2022/12/01 08:30:31;;;;;;;28.13;13.70;;;4.90;99.90;;;;;;5090380;28;20051;-72
2022/12/01 08:32:57;;;;;;;30.08;13.93;;;5.20;99.90;;;;;;5072785;28;20062;-72
2022/12/01 08:35:24;;;;;;;30.75;14.45;;;4.80;99.90;;;;;;5089891;28;20044;-71
2022/12/01 08:37:52;;;;;;;26.30;13.80;;;4.90;99.90;;;;;;5091977;28;20051;-72
2022/12/01 08:40:19;;;;;;;25.88;14.23;;;5.00;99.90;;;;;;5090690;28;20093;-71
2022/12/01 08:42:45;;;;;;;29.33;14.23;;;5.30;99.90;;;;;;5091577;28;20044;-71
2022/12/01 08:45:11;;;;;;;26.92;14.13;;;5.20;99.90;;;;;;5090461;28;20063;-75
2022/12/01 08:47:36;;;;;;;28.40;13.70;;;5.10;99.90;;;;;;5090333;28;20059;-71
2022/12/01 08:50:03;;;;;;;27.00;13.80;;;5.10;99.90;;;;;;5091835;28;20127;-71
2022/12/01 08:52:33;;;;;;;28.73;14.35;;;5.20;99.90;;;;;;5091403;28;20055;-71
2022/12/01 08:54:59;;;;;;;28.90;14.73;;;5.00;99.90;;;;;;5091693;28;20043;-70
2022/12/01 08:57:24;;;;;;;33.97;15.32;;;5.00;99.90;;;;;;5091453;28;20048;-70
2022/12/01 08:59:50;;;;;;;30.42;15.13;;;5.40;99.90;;;;;;5090785;28;20080;-71
2022/12/01 09:02:21;;;;;;;29.20;13.85;;;5.30;99.90;;;;;;5091502;28;20039;-71
2022/12/01 09:04:48;;;;;;;32.97;15.52;;;5.40;99.90;;;;;;5091401;28;20124;-72
2022/12/01 09:07:15;;;;;;;33.65;16.50;;;5.50;99.90;;;;;;5091287;28;20048;-72
2022/12/01 09:09:42;;;;;;;30.23;15.30;;;5.40;99.90;;;;;;5090383;28;20116;-71
2022/12/01 09:12:08;;;;;;;28.58;15.02;;;5.40;99.90;;;;;;5091419;28;20058;-73
2022/12/01 09:14:38;;;;;;;29.38;14.93;;;5.60;99.90;;;;;;5094407;28;20130;-72
2022/12/01 09:17:04;;;;;;;33.92;16.48;;;5.50;99.90;;;;;;5111810;28;20047;-71
2022/12/01 09:19:30;;;;;;;28.67;15.25;;;5.90;99.90;;;;;;5111721;28;20055;-71
2022/12/01 09:21:56;;;;;;;28.15;14.75;;;5.40;99.90;;;;;;5111716;28;20071;-74
2022/12/01 09:24:22;;;;;;;28.67;15.23;;;6.00;99.90;;;;;;5110857;28;20044;-73
2022/12/01 09:26:48;;;;;;;30.48;14.68;;;5.80;99.90;;;;;;5111784;28;20047;-75
2022/12/01 09:29:15;;;;;;;33.60;15.68;;;7.30;99.90;;;;;;5110281;28;20445;-74
2022/12/01 09:31:41;;;;;;;30.10;15.00;;;5.80;99.90;;;;;;5112279;28;20047;-72
2022/12/01 09:34:11;;;;;;;32.25;15.77;;;6.10;99.90;;;;;;5132168;28;20047;-74
2022/12/01 09:36:37;;;;;;;31.10;14.93;;;6.60;99.90;;;;;;5131977;28;20043;-74
2022/12/01 09:39:05;;;;;;;29.98;15.38;;;6.70;99.90;;;;;;5132143;28;20093;-74
2022/12/01 09:41:42;;;;;;;30.02;15.13;;;6.50;99.90;;;;;;5125898;27;20126;-71
2022/12/01 09:44:29;;;;;;;28.23;14.15;;;6.40;99.90;;;;;;5152222;27;20057;-72
2022/12/01 09:47:04;;;;;;;27.17;13.13;;;6.70;99.90;;;;;;5135562;27;20046;-72
2022/12/01 09:49:50;;;;;;;29.30;12.93;;;6.40;99.90;;;;;;5112814;28;20128;-71
2022/12/01 09:52:18;;;;;;;27.08;13.05;;;6.60;99.90;;;;;;5143886;27;20069;-72
2022/12/01 09:54:45;;;;;;;27.77;14.27;;;6.90;99.90;;;;;;5150801;27;20527;-71
2022/12/01 09:57:21;;;;;;;24.00;12.57;;;7.70;99.90;;;;;;5152160;27;20062;-71
2022/12/01 09:59:47;;;;;;;30.95;14.48;;;8.00;99.90;;;;;;5152190;27;20506;-71
2022/12/01 10:02:31;;;;;;;24.13;12.52;;;7.10;99.90;;;;;;5121589;28;20078;-73
2022/12/01 10:05:00;;;;;;;25.50;12.60;;;7.30;99.90;;;;;;5132287;27;20119;-71
2022/12/01 10:07:32;;;;;;;23.80;12.88;;;8.10;99.90;;;;;;5135370;27;20059;-72
2022/12/01 10:10:06;;;;;;;24.80;11.85;;;7.90;99.90;;;;;;5134668;27;20046;-72
2022/12/01 10:12:34;;;;;;;25.73;12.18;;;7.50;99.90;;;;;;5135402;27;20047;-72
2022/12/01 10:15:14;;;;;;;20.40;11.57;;;7.60;99.90;;;;;;5134163;27;20129;-71
2022/12/01 10:18:05;;;;;;;22.98;12.63;;;7.20;99.90;;;;;;5134290;27;20114;-70
2022/12/01 10:20:40;;;;;;;21.35;11.52;;;7.50;99.90;;;;;;5143594;27;20037;-70
2022/12/01 10:23:40;;;;;;;24.00;12.25;;;7.90;99.90;;;;;;5146691;27;20542;-70
2022/12/01 10:26:13;;;;;;;21.58;11.00;;;7.60;99.90;;;;;;5146532;27;20134;-70
2022/12/01 10:29:21;;;;;;;20.83;11.85;;;7.70;99.90;;;;;;5145632;27;20125;-71
2022/12/01 10:31:53;;;;;;;18.15;10.52;;;8.10;99.90;;;;;;5146012;27;20390;-71
2022/12/01 10:34:40;;;;;;;20.05;11.35;;;7.70;99.90;;;;;;5145283;27;20059;-71
2022/12/01 10:37:19;;;;;;;21.60;10.90;;;8.20;99.90;;;;;;5128063;27;20058;-70
2022/12/01 10:39:47;;;;;;;21.65;10.68;;;8.10;99.90;;;;;;5145414;27;20045;-70
2022/12/01 10:42:38;;;;;;;16.20;10.57;;;7.90;99.90;;;;;;5126047;27;20035;-70
2022/12/01 10:45:14;;;;;;;19.00;11.80;;;7.70;99.90;;;;;;5145834;27;20425;-71
2022/12/01 10:48:14;;;;;;;17.58;11.48;;;7.60;99.90;;;;;;5143373;27;20095;-70
2022/12/01 10:50:54;;;;;;;18.00;11.30;;;7.80;99.90;;;;;;5131541;27;20043;-75
2022/12/01 10:53:24;;;;;;;17.88;10.52;;;7.70;99.90;;;;;;5144122;27;20039;-74
2022/12/01 10:56:19;;;;;;;15.85;10.18;;;7.80;99.90;;;;;;5134336;27;20507;-71
2022/12/01 10:58:47;;;;;;;16.02;9.98;;;7.60;99.90;;;;;;5132812;27;20119;-73
2022/12/01 11:01:24;;;;;;;20.02;10.90;;;7.70;99.90;;;;;;5134608;27;20047;-71
2022/12/01 11:03:55;;;;;;;;;;;7.50;99.90;;;;;;5133437;27;20040;-69
2022/12/01 11:06:24;;;;;;;19.50;10.55;;;7.70;99.90;;;;;;5134273;27;19988;-71
2022/12/01 11:08:53;;;;;;;18.30;10.27;;;7.80;99.90;;;;;;5134218;27;20051;-69
2022/12/01 11:11:32;;;;;;;18.20;10.20;;;7.70;99.90;;;;;;5115736;27;20466;-71
2022/12/01 11:14:01;;;;;;;15.77;9.55;;;8.50;99.90;;;;;;5116403;27;20063;-71
2022/12/01 11:16:46;;;;;;;17.63;10.18;;;8.20;99.90;;;;;;5137699;27;20483;-75
2022/12/01 11:19:33;;;;;;;17.52;10.90;;;7.40;99.90;;;;;;5133639;27;20077;-71
2022/12/01 11:22:25;;;;;;;20.23;11.68;;;7.30;99.90;;;;;;5133517;27;20054;-71
2022/12/01 11:24:54;;;;;;;19.08;11.07;;;7.60;99.90;;;;;;5136529;27;20191;-71
2022/12/01 11:27:25;;;;;;;19.15;11.70;;;7.40;99.90;;;;;;5154478;27;20046;-71
2022/12/01 11:29:55;;;;;;;19.35;11.60;;;7.40;99.90;;;;;;5153533;27;20034;-71
2022/12/01 11:32:30;;;;;;;21.13;12.40;;;7.10;99.90;;;;;;5152714;27;20199;-72
2022/12/01 11:34:58;;;;;;;18.38;11.65;;;7.00;99.90;;;;;;5154515;27;20507;-72
2022/12/01 11:37:28;;;;;;;22.83;13.00;;;7.20;99.90;;;;;;5154384;27;20092;-71
2022/12/01 11:40:02;;;;;;;21.27;12.80;;;7.10;99.90;;;;;;5154533;27;20601;-71
2022/12/01 11:42:30;;;;;;;22.75;13.50;;;6.90;99.90;;;;;;5119137;27;20057;-71
2022/12/01 11:45:04;;;;;;;24.65;14.35;;;7.90;99.90;;;;;;5154191;27;20486;-71
2022/12/01 11:47:30;;;;;;;22.02;13.70;;;8.30;99.90;;;;;;5148349;27;20046;-78
2022/12/01 11:49:59;;;;;;;31.33;15.05;;;7.40;99.90;;;;;;5129834;27;20093;-71
2022/12/01 11:52:29;;;;;;;22.80;13.65;;;8.20;99.90;;;;;;5133149;27;20058;-71
2022/12/01 11:55:15;;;;;;;21.63;13.10;;;7.70;99.90;;;;;;5122554;27;20049;-71
2022/12/01 11:57:47;;;;;;;19.50;11.05;;;8.00;99.90;;;;;;5136792;27;20058;-71
2022/12/01 12:00:14;;;;;;;20.00;11.38;;;7.60;99.90;;;;;;5141524;27;20043;-69
2022/12/01 12:02:43;;;;;;;21.17;12.02;;;8.30;99.90;;;;;;5132635;27;20073;-71
2022/12/01 12:05:47;;;;;;;20.60;12.18;;;8.40;99.90;;;;;;5133331;27;20051;-71
2022/12/01 12:08:34;;;;;;;25.30;13.68;;;8.80;99.90;;;;;;5130396;27;20051;-73
2022/12/01 12:11:23;;;;;;;19.65;11.85;;;8.50;99.90;;;;;;5132309;27;20053;-71
2022/12/01 12:13:55;;;;;;;17.23;10.80;;;8.30;99.90;;;;;;5132362;27;20089;-73
2022/12/01 12:16:58;;;;;;;17.02;10.55;;;8.30;99.90;;;;;;5131627;27;20534;-72
2022/12/01 12:19:48;;;;;;;18.50;11.32;;;8.30;99.90;;;;;;5112958;27;20043;-73
2022/12/01 12:22:19;;;;;;;21.13;12.48;;;8.20;99.90;;;;;;5131590;27;20137;-73
2022/12/01 12:25:09;;;;;;;24.55;13.70;;;8.30;99.90;;;;;;5131915;27;20175;-69
2022/12/01 12:27:58;;;;;;;24.35;13.65;;;8.50;99.90;;;;;;5131124;27;20060;-70
2022/12/01 12:30:28;;;;;;;28.45;15.95;;;8.30;99.90;;;;;;5096351;27;20047;-72
2022/12/01 12:33:47;;;;;;;35.40;18.63;;;9.10;99.90;;;;;;5112085;27;20499;-72
2022/12/01 12:36:43;;;;;;;43.90;22.35;;;7.90;99.90;;;;;;5047171;28;20107;-73
2022/12/01 12:39:27;;;;;;;52.97;26.15;;;7.90;99.90;;;;;;5047929;28;20049;-70
2022/12/01 12:41:55;;;;;;;49.65;24.35;;;7.70;99.90;;;;;;5122765;27;20550;-71
2022/12/01 12:44:35;;;;;;;51.85;25.67;;;8.10;99.90;;;;;;5131311;27;20054;-69
2022/12/01 12:47:11;;;;;;;42.47;21.90;;;7.90;99.90;;;;;;5130901;27;20122;-68
2022/12/01 12:49:53;;;;;;;48.95;24.58;;;8.10;99.90;;;;;;5130885;27;20047;-69
2022/12/01 12:52:33;;;;;;;50.13;23.85;;;8.30;99.90;;;;;;5131142;27;20070;-67
2022/12/01 12:55:19;;;;;;;51.58;25.38;;;8.20;99.90;;;;;;5131518;28;20126;-68
2022/12/01 12:57:56;;;;;;;46.33;23.65;;;8.20;99.90;;;;;;5131701;28;20582;-72
2022/12/01 13:00:28;;;;;;;47.67;22.70;;;8.00;99.90;;;;;;5137224;27;20430;-72
2022/12/01 13:03:23;;;;;;;46.65;23.73;;;8.20;99.90;;;;;;5153418;27;20133;-73
2022/12/01 13:05:52;;;;;;;50.38;23.00;;;7.70;99.90;;;;;;5153382;27;20466;-73
2022/12/01 13:08:21;;;;;;;51.50;25.40;;;8.00;99.90;;;;;;5153457;27;20051;-73